sensor_id;sensor_type;location;lat;lon;timestamp;P1;durP1;ratioP1;P2;durP2;ratioP2
60292;SDS011;52402;52.670;6.750;2022-09-09T00:06:28;10.20;;;7.60;;
60292;SDS011;52402;52.670;6.750;2022-09-09T00:11:43;10.68;;;7.07;;
60292;SDS011;52402;52.670;6.750;2022-09-09T00:14:13;12.40;;;8.07;;
60292;SDS011;52402;52.670;6.750;2022-09-09T00:16:44;10.65;;;7.45;;
60292;SDS011;52402;52.670;6.750;2022-09-09T00:22:15;10.43;;;8.02;;
60292;SDS011;52402;52.670;6.750;2022-09-09T00:24:42;8.35;;;7.10;;
60292;SDS011;52402;52.670;6.750;2022-09-09T00:27:11;13.18;;;9.73;;
60292;SDS011;52402;52.670;6.750;2022-09-09T00:29:54;11.10;;;8.57;;
60292;SDS011;52402;52.670;6.750;2022-09-09T00:32:24;10.60;;;8.20;;
60292;SDS011;52402;52.670;6.750;2022-09-09T00:35:10;9.02;;;7.57;;
60292;SDS011;52402;52.670;6.750;2022-09-09T00:37:43;12.10;;;9.43;;
60292;SDS011;52402;52.670;6.750;2022-09-09T00:40:31;11.90;;;8.82;;
60292;SDS011;52402;52.670;6.750;2022-09-09T00:48:19;14.65;;;13.07;;
60292;SDS011;52402;52.670;6.750;2022-09-09T00:50:59;17.35;;;12.02;;
60292;SDS011;52402;52.670;6.750;2022-09-09T00:56:14;14.85;;;10.15;;
60292;SDS011;52402;52.670;6.750;2022-09-09T00:58:49;17.85;;;11.65;;
60292;SDS011;52402;52.670;6.750;2022-09-09T01:01:23;19.10;;;13.75;;
60292;SDS011;52402;52.670;6.750;2022-09-09T01:09:11;14.93;;;12.25;;
60292;SDS011;52402;52.670;6.750;2022-09-09T01:12:07;19.70;;;14.10;;
60292;SDS011;52402;52.670;6.750;2022-09-09T01:14:42;17.02;;;13.10;;
60292;SDS011;52402;52.670;6.750;2022-09-09T01:17:21;17.33;;;13.57;;
60292;SDS011;52402;52.670;6.750;2022-09-09T01:22:44;13.45;;;10.80;;
60292;SDS011;52402;52.670;6.750;2022-09-09T01:28:00;14.90;;;11.32;;
60292;SDS011;52402;52.670;6.750;2022-09-09T01:30:30;12.85;;;9.82;;
60292;SDS011;52402;52.670;6.750;2022-09-09T01:32:58;14.90;;;11.18;;
60292;SDS011;52402;52.670;6.750;2022-09-09T01:35:41;13.00;;;10.35;;
60292;SDS011;52402;52.670;6.750;2022-09-09T01:38:07;13.10;;;10.45;;
60292;SDS011;52402;52.670;6.750;2022-09-09T01:40:33;12.93;;;10.20;;
60292;SDS011;52402;52.670;6.750;2022-09-09T01:42:59;13.27;;;9.85;;
60292;SDS011;52402;52.670;6.750;2022-09-09T01:45:25;14.30;;;10.75;;
60292;SDS011;52402;52.670;6.750;2022-09-09T01:47:51;14.07;;;10.25;;
60292;SDS011;52402;52.670;6.750;2022-09-09T01:50:18;12.57;;;10.05;;
60292;SDS011;52402;52.670;6.750;2022-09-09T01:52:44;13.32;;;10.30;;
60292;SDS011;52402;52.670;6.750;2022-09-09T01:55:14;15.93;;;11.82;;
60292;SDS011;52402;52.670;6.750;2022-09-09T01:58:00;11.90;;;10.07;;
60292;SDS011;52402;52.670;6.750;2022-09-09T02:00:53;13.35;;;10.27;;
60292;SDS011;52402;52.670;6.750;2022-09-09T02:03:27;13.57;;;10.48;;
60292;SDS011;52402;52.670;6.750;2022-09-09T02:08:29;13.32;;;10.82;;
60292;SDS011;52402;52.670;6.750;2022-09-09T02:13:29;18.50;;;13.00;;
60292;SDS011;52402;52.670;6.750;2022-09-09T02:16:00;11.43;;;9.52;;
60292;SDS011;52402;52.670;6.750;2022-09-09T02:18:43;13.82;;;11.02;;
60292;SDS011;52402;52.670;6.750;2022-09-09T02:21:13;14.82;;;10.57;;
60292;SDS011;52402;52.670;6.750;2022-09-09T02:23:41;12.23;;;10.25;;
60292;SDS011;52402;52.670;6.750;2022-09-09T02:26:08;17.02;;;11.43;;
60292;SDS011;52402;52.670;6.750;2022-09-09T02:28:38;13.73;;;10.00;;
60292;SDS011;52402;52.670;6.750;2022-09-09T02:31:05;10.38;;;8.35;;
60292;SDS011;52402;52.670;6.750;2022-09-09T02:33:36;11.13;;;9.75;;
60292;SDS011;52402;52.670;6.750;2022-09-09T02:36:08;8.50;;;7.47;;
60292;SDS011;52402;52.670;6.750;2022-09-09T02:38:37;10.18;;;8.07;;
60292;SDS011;52402;52.670;6.750;2022-09-09T02:41:07;8.45;;;4.95;;
60292;SDS011;52402;52.670;6.750;2022-09-09T02:43:33;9.30;;;4.93;;
60292;SDS011;52402;52.670;6.750;2022-09-09T02:48:34;6.50;;;4.10;;
60292;SDS011;52402;52.670;6.750;2022-09-09T02:51:46;7.88;;;4.18;;
60292;SDS011;52402;52.670;6.750;2022-09-09T02:54:17;7.30;;;4.28;;
60292;SDS011;52402;52.670;6.750;2022-09-09T02:56:48;8.55;;;3.60;;
60292;SDS011;52402;52.670;6.750;2022-09-09T02:59:17;7.72;;;3.42;;
60292;SDS011;52402;52.670;6.750;2022-09-09T03:01:43;5.55;;;3.47;;
60292;SDS011;52402;52.670;6.750;2022-09-09T03:04:10;5.95;;;3.22;;
60292;SDS011;52402;52.670;6.750;2022-09-09T03:06:35;5.55;;;3.53;;
60292;SDS011;52402;52.670;6.750;2022-09-09T03:09:01;9.93;;;4.43;;
60292;SDS011;52402;52.670;6.750;2022-09-09T03:11:27;8.32;;;5.72;;
60292;SDS011;52402;52.670;6.750;2022-09-09T03:13:54;9.07;;;7.07;;
60292;SDS011;52402;52.670;6.750;2022-09-09T03:16:21;12.88;;;9.32;;
60292;SDS011;52402;52.670;6.750;2022-09-09T03:18:47;15.88;;;11.60;;
60292;SDS011;52402;52.670;6.750;2022-09-09T03:21:13;20.23;;;13.75;;
60292;SDS011;52402;52.670;6.750;2022-09-09T03:23:39;18.88;;;13.82;;
60292;SDS011;52402;52.670;6.750;2022-09-09T03:26:04;17.95;;;15.18;;
60292;SDS011;52402;52.670;6.750;2022-09-09T03:28:30;19.00;;;16.42;;
60292;SDS011;52402;52.670;6.750;2022-09-09T03:31:03;25.75;;;17.20;;
60292;SDS011;52402;52.670;6.750;2022-09-09T03:33:29;25.60;;;18.65;;
60292;SDS011;52402;52.670;6.750;2022-09-09T03:35:56;21.73;;;17.42;;
60292;SDS011;52402;52.670;6.750;2022-09-09T03:38:23;19.40;;;17.23;;
60292;SDS011;52402;52.670;6.750;2022-09-09T03:40:53;19.10;;;16.83;;
60292;SDS011;52402;52.670;6.750;2022-09-09T03:43:23;23.60;;;18.65;;
60292;SDS011;52402;52.670;6.750;2022-09-09T03:45:50;24.92;;;20.25;;
60292;SDS011;52402;52.670;6.750;2022-09-09T03:48:16;22.50;;;18.40;;
60292;SDS011;52402;52.670;6.750;2022-09-09T03:50:49;26.27;;;20.58;;
60292;SDS011;52402;52.670;6.750;2022-09-09T03:53:17;23.58;;;20.35;;
60292;SDS011;52402;52.670;6.750;2022-09-09T03:58:14;19.73;;;17.40;;
60292;SDS011;52402;52.670;6.750;2022-09-09T04:00:40;24.67;;;19.75;;
60292;SDS011;52402;52.670;6.750;2022-09-09T04:03:09;18.50;;;16.52;;
60292;SDS011;52402;52.670;6.750;2022-09-09T04:05:36;21.27;;;18.45;;
60292;SDS011;52402;52.670;6.750;2022-09-09T04:08:07;22.08;;;18.67;;
60292;SDS011;52402;52.670;6.750;2022-09-09T04:10:33;18.35;;;16.52;;
60292;SDS011;52402;52.670;6.750;2022-09-09T04:13:02;21.58;;;19.27;;
60292;SDS011;52402;52.670;6.750;2022-09-09T04:15:31;28.48;;;20.83;;
60292;SDS011;52402;52.670;6.750;2022-09-09T04:17:57;23.85;;;19.35;;
60292;SDS011;52402;52.670;6.750;2022-09-09T04:20:23;28.48;;;20.60;;
60292;SDS011;52402;52.670;6.750;2022-09-09T04:22:49;20.05;;;17.73;;
60292;SDS011;52402;52.670;6.750;2022-09-09T04:25:14;27.73;;;20.15;;
60292;SDS011;52402;52.670;6.750;2022-09-09T04:27:40;22.27;;;17.30;;
60292;SDS011;52402;52.670;6.750;2022-09-09T04:30:06;21.52;;;18.77;;
60292;SDS011;52402;52.670;6.750;2022-09-09T04:32:33;19.10;;;16.92;;
60292;SDS011;52402;52.670;6.750;2022-09-09T04:34:58;19.45;;;17.42;;
60292;SDS011;52402;52.670;6.750;2022-09-09T04:37:24;18.23;;;16.23;;
60292;SDS011;52402;52.670;6.750;2022-09-09T04:39:50;18.67;;;16.77;;
60292;SDS011;52402;52.670;6.750;2022-09-09T04:42:15;19.55;;;17.45;;
60292;SDS011;52402;52.670;6.750;2022-09-09T04:44:42;19.02;;;15.73;;
60292;SDS011;52402;52.670;6.750;2022-09-09T04:47:09;21.02;;;16.63;;
60292;SDS011;52402;52.670;6.750;2022-09-09T04:49:35;25.30;;;18.40;;
60292;SDS011;52402;52.670;6.750;2022-09-09T04:52:02;17.58;;;15.40;;
60292;SDS011;52402;52.670;6.750;2022-09-09T04:54:28;18.17;;;15.60;;
60292;SDS011;52402;52.670;6.750;2022-09-09T04:56:54;19.73;;;16.58;;
60292;SDS011;52402;52.670;6.750;2022-09-09T04:59:20;16.38;;;14.68;;
60292;SDS011;52402;52.670;6.750;2022-09-09T05:01:46;15.32;;;13.82;;
60292;SDS011;52402;52.670;6.750;2022-09-09T05:04:13;16.80;;;14.85;;
60292;SDS011;52402;52.670;6.750;2022-09-09T05:06:40;15.68;;;14.13;;
60292;SDS011;52402;52.670;6.750;2022-09-09T05:09:06;16.85;;;14.10;;
60292;SDS011;52402;52.670;6.750;2022-09-09T05:11:32;20.17;;;15.85;;
60292;SDS011;52402;52.670;6.750;2022-09-09T05:14:01;18.75;;;14.75;;
60292;SDS011;52402;52.670;6.750;2022-09-09T05:16:27;16.90;;;13.80;;
60292;SDS011;52402;52.670;6.750;2022-09-09T05:18:53;15.30;;;13.70;;
60292;SDS011;52402;52.670;6.750;2022-09-09T05:21:19;19.33;;;15.48;;
60292;SDS011;52402;52.670;6.750;2022-09-09T05:23:46;15.85;;;14.05;;
60292;SDS011;52402;52.670;6.750;2022-09-09T05:26:14;15.32;;;13.73;;
60292;SDS011;52402;52.670;6.750;2022-09-09T05:28:40;18.15;;;15.25;;
60292;SDS011;52402;52.670;6.750;2022-09-09T05:31:07;26.00;;;16.65;;
60292;SDS011;52402;52.670;6.750;2022-09-09T05:33:34;24.15;;;15.25;;
60292;SDS011;52402;52.670;6.750;2022-09-09T05:36:05;20.05;;;15.20;;
60292;SDS011;52402;52.670;6.750;2022-09-09T05:38:36;22.27;;;16.75;;
60292;SDS011;52402;52.670;6.750;2022-09-09T05:41:03;15.75;;;12.88;;
60292;SDS011;52402;52.670;6.750;2022-09-09T05:43:29;19.48;;;15.40;;
60292;SDS011;52402;52.670;6.750;2022-09-09T05:45:59;17.10;;;13.85;;
60292;SDS011;52402;52.670;6.750;2022-09-09T05:48:33;15.30;;;13.55;;
60292;SDS011;52402;52.670;6.750;2022-09-09T05:51:04;16.17;;;14.48;;
60292;SDS011;52402;52.670;6.750;2022-09-09T05:53:34;14.38;;;12.73;;
60292;SDS011;52402;52.670;6.750;2022-09-09T05:58:33;17.55;;;14.00;;
60292;SDS011;52402;52.670;6.750;2022-09-09T06:01:00;16.80;;;13.37;;
60292;SDS011;52402;52.670;6.750;2022-09-09T06:03:36;14.50;;;12.98;;
60292;SDS011;52402;52.670;6.750;2022-09-09T06:06:04;14.07;;;12.45;;
60292;SDS011;52402;52.670;6.750;2022-09-09T06:08:35;18.88;;;14.57;;
60292;SDS011;52402;52.670;6.750;2022-09-09T06:11:07;18.05;;;14.32;;
60292;SDS011;52402;52.670;6.750;2022-09-09T06:13:41;17.13;;;12.77;;
60292;SDS011;52402;52.670;6.750;2022-09-09T06:16:11;13.93;;;11.02;;
60292;SDS011;52402;52.670;6.750;2022-09-09T06:18:38;14.18;;;11.80;;
60292;SDS011;52402;52.670;6.750;2022-09-09T06:21:05;15.23;;;11.90;;
60292;SDS011;52402;52.670;6.750;2022-09-09T06:23:33;13.48;;;12.05;;
60292;SDS011;52402;52.670;6.750;2022-09-09T06:28:35;12.98;;;11.02;;
60292;SDS011;52402;52.670;6.750;2022-09-09T06:31:02;18.60;;;13.60;;
60292;SDS011;52402;52.670;6.750;2022-09-09T06:33:33;14.98;;;11.63;;
60292;SDS011;52402;52.670;6.750;2022-09-09T06:36:02;13.43;;;9.88;;
60292;SDS011;52402;52.670;6.750;2022-09-09T06:38:28;14.35;;;12.10;;
60292;SDS011;52402;52.670;6.750;2022-09-09T06:40:55;13.00;;;11.63;;
60292;SDS011;52402;52.670;6.750;2022-09-09T06:43:26;14.07;;;10.67;;
60292;SDS011;52402;52.670;6.750;2022-09-09T06:45:56;11.85;;;9.73;;
60292;SDS011;52402;52.670;6.750;2022-09-09T06:48:27;16.42;;;12.13;;
60292;SDS011;52402;52.670;6.750;2022-09-09T06:51:00;15.18;;;10.48;;
60292;SDS011;52402;52.670;6.750;2022-09-09T06:53:34;17.17;;;13.43;;
60292;SDS011;52402;52.670;6.750;2022-09-09T06:58:44;14.00;;;10.40;;
60292;SDS011;52402;52.670;6.750;2022-09-09T07:01:11;14.32;;;10.52;;
60292;SDS011;52402;52.670;6.750;2022-09-09T07:03:41;14.40;;;11.02;;
60292;SDS011;52402;52.670;6.750;2022-09-09T07:06:13;14.10;;;10.60;;
60292;SDS011;52402;52.670;6.750;2022-09-09T07:08:42;13.73;;;10.48;;
60292;SDS011;52402;52.670;6.750;2022-09-09T07:11:08;14.00;;;10.63;;
60292;SDS011;52402;52.670;6.750;2022-09-09T07:13:34;17.95;;;10.90;;
60292;SDS011;52402;52.670;6.750;2022-09-09T07:16:19;13.20;;;9.73;;
60292;SDS011;52402;52.670;6.750;2022-09-09T07:18:45;15.52;;;10.48;;
60292;SDS011;52402;52.670;6.750;2022-09-09T07:21:12;12.88;;;9.88;;
60292;SDS011;52402;52.670;6.750;2022-09-09T07:23:39;14.77;;;10.45;;
60292;SDS011;52402;52.670;6.750;2022-09-09T07:26:12;12.02;;;9.50;;
60292;SDS011;52402;52.670;6.750;2022-09-09T07:28:39;13.15;;;10.13;;
60292;SDS011;52402;52.670;6.750;2022-09-09T07:31:06;13.10;;;10.15;;
60292;SDS011;52402;52.670;6.750;2022-09-09T07:33:33;15.20;;;10.55;;
60292;SDS011;52402;52.670;6.750;2022-09-09T07:36:04;12.27;;;9.70;;
60292;SDS011;52402;52.670;6.750;2022-09-09T07:38:32;11.15;;;9.40;;
60292;SDS011;52402;52.670;6.750;2022-09-09T07:41:06;13.60;;;10.13;;
60292;SDS011;52402;52.670;6.750;2022-09-09T07:43:34;12.98;;;9.50;;
60292;SDS011;52402;52.670;6.750;2022-09-09T07:45:59;15.40;;;11.15;;
60292;SDS011;52402;52.670;6.750;2022-09-09T07:48:28;14.98;;;10.15;;
60292;SDS011;52402;52.670;6.750;2022-09-09T07:51:02;11.02;;;9.32;;
60292;SDS011;52402;52.670;6.750;2022-09-09T07:53:36;11.65;;;9.15;;
60292;SDS011;52402;52.670;6.750;2022-09-09T07:56:06;12.98;;;8.88;;
60292;SDS011;52402;52.670;6.750;2022-09-09T07:58:35;13.30;;;10.93;;
60292;SDS011;52402;52.670;6.750;2022-09-09T08:01:12;13.98;;;10.02;;
60292;SDS011;52402;52.670;6.750;2022-09-09T08:04:14;12.18;;;9.65;;
60292;SDS011;52402;52.670;6.750;2022-09-09T08:06:44;11.88;;;10.25;;
60292;SDS011;52402;52.670;6.750;2022-09-09T08:09:15;14.98;;;10.80;;
60292;SDS011;52402;52.670;6.750;2022-09-09T08:11:41;13.40;;;10.25;;
60292;SDS011;52402;52.670;6.750;2022-09-09T08:14:08;12.30;;;9.32;;
60292;SDS011;52402;52.670;6.750;2022-09-09T08:16:36;16.60;;;9.98;;
60292;SDS011;52402;52.670;6.750;2022-09-09T08:19:05;10.07;;;8.50;;
60292;SDS011;52402;52.670;6.750;2022-09-09T08:21:33;13.75;;;8.65;;
60292;SDS011;52402;52.670;6.750;2022-09-09T08:24:00;14.05;;;7.72;;
60292;SDS011;52402;52.670;6.750;2022-09-09T08:26:27;14.63;;;8.80;;
60292;SDS011;52402;52.670;6.750;2022-09-09T08:28:56;12.65;;;7.90;;
60292;SDS011;52402;52.670;6.750;2022-09-09T08:31:24;10.32;;;6.82;;
60292;SDS011;52402;52.670;6.750;2022-09-09T08:33:57;10.45;;;8.00;;
60292;SDS011;52402;52.670;6.750;2022-09-09T08:36:26;14.10;;;8.50;;
60292;SDS011;52402;52.670;6.750;2022-09-09T08:38:54;15.10;;;8.18;;
60292;SDS011;52402;52.670;6.750;2022-09-09T08:41:29;12.82;;;7.45;;
60292;SDS011;52402;52.670;6.750;2022-09-09T08:49:39;12.07;;;6.63;;
60292;SDS011;52402;52.670;6.750;2022-09-09T08:55:05;15.45;;;6.60;;
60292;SDS011;52402;52.670;6.750;2022-09-09T08:57:58;13.63;;;7.20;;
60292;SDS011;52402;52.670;6.750;2022-09-09T09:00:35;11.88;;;7.35;;
60292;SDS011;52402;52.670;6.750;2022-09-09T09:06:11;12.98;;;5.88;;
60292;SDS011;52402;52.670;6.750;2022-09-09T09:08:56;10.32;;;6.10;;
60292;SDS011;52402;52.670;6.750;2022-09-09T09:11:43;12.73;;;6.35;;
60292;SDS011;52402;52.670;6.750;2022-09-09T09:14:21;12.25;;;5.03;;
60292;SDS011;52402;52.670;6.750;2022-09-09T09:16:53;11.93;;;5.03;;
60292;SDS011;52402;52.670;6.750;2022-09-09T09:19:31;14.07;;;5.07;;
60292;SDS011;52402;52.670;6.750;2022-09-09T09:27:40;12.98;;;5.18;;
60292;SDS011;52402;52.670;6.750;2022-09-09T09:30:16;9.77;;;4.30;;
60292;SDS011;52402;52.670;6.750;2022-09-09T09:32:48;9.98;;;4.50;;
60292;SDS011;52402;52.670;6.750;2022-09-09T09:35:27;11.80;;;4.82;;
60292;SDS011;52402;52.670;6.750;2022-09-09T09:37:52;11.38;;;4.47;;
60292;SDS011;52402;52.670;6.750;2022-09-09T09:40:19;10.57;;;4.57;;
60292;SDS011;52402;52.670;6.750;2022-09-09T09:42:53;11.63;;;4.07;;
60292;SDS011;52402;52.670;6.750;2022-09-09T09:45:33;11.90;;;4.47;;
60292;SDS011;52402;52.670;6.750;2022-09-09T09:48:06;13.30;;;4.47;;
60292;SDS011;52402;52.670;6.750;2022-09-09T09:53:19;10.40;;;3.42;;
60292;SDS011;52402;52.670;6.750;2022-09-09T10:01:26;13.53;;;4.13;;
60292;SDS011;52402;52.670;6.750;2022-09-09T10:04:40;10.50;;;3.92;;
60292;SDS011;52402;52.670;6.750;2022-09-09T10:06:51;10.57;;;3.72;;
60292;SDS011;52402;52.670;6.750;2022-09-09T10:09:24;9.70;;;3.78;;
60292;SDS011;52402;52.670;6.750;2022-09-09T10:11:59;8.93;;;3.40;;
60292;SDS011;52402;52.670;6.750;2022-09-09T10:14:30;8.90;;;3.22;;
60292;SDS011;52402;52.670;6.750;2022-09-09T10:19:40;8.50;;;3.70;;
60292;SDS011;52402;52.670;6.750;2022-09-09T10:22:19;9.23;;;3.50;;
60292;SDS011;52402;52.670;6.750;2022-09-09T10:25:58;8.82;;;3.00;;
60292;SDS011;52402;52.670;6.750;2022-09-09T10:28:03;8.07;;;2.80;;
60292;SDS011;52402;52.670;6.750;2022-09-09T10:33:30;7.95;;;2.50;;
60292;SDS011;52402;52.670;6.750;2022-09-09T10:39:04;8.48;;;2.55;;
60292;SDS011;52402;52.670;6.750;2022-09-09T10:55:26;8.18;;;2.80;;
60292;SDS011;52402;52.670;6.750;2022-09-09T10:58:02;7.28;;;2.53;;
60292;SDS011;52402;52.670;6.750;2022-09-09T11:00:37;8.45;;;2.28;;
60292;SDS011;52402;52.670;6.750;2022-09-09T11:03:06;9.07;;;2.25;;
60292;SDS011;52402;52.670;6.750;2022-09-09T11:05:45;8.80;;;2.30;;
60292;SDS011;52402;52.670;6.750;2022-09-09T11:08:21;8.05;;;2.40;;
60292;SDS011;52402;52.670;6.750;2022-09-09T11:11:04;9.60;;;2.50;;
60292;SDS011;52402;52.670;6.750;2022-09-09T11:16:15;8.55;;;2.53;;
60292;SDS011;52402;52.670;6.750;2022-09-09T11:18:50;9.20;;;2.53;;
60292;SDS011;52402;52.670;6.750;2022-09-09T11:21:31;8.20;;;2.40;;
60292;SDS011;52402;52.670;6.750;2022-09-09T11:24:03;7.38;;;2.63;;
60292;SDS011;52402;52.670;6.750;2022-09-09T11:26:43;7.30;;;2.15;;
60292;SDS011;52402;52.670;6.750;2022-09-09T11:35:00;8.85;;;2.50;;
60292;SDS011;52402;52.670;6.750;2022-09-09T11:40:25;8.63;;;2.50;;
60292;SDS011;52402;52.670;6.750;2022-09-09T11:45:33;8.02;;;2.30;;
60292;SDS011;52402;52.670;6.750;2022-09-09T11:48:00;7.18;;;2.47;;
60292;SDS011;52402;52.670;6.750;2022-09-09T11:50:32;7.63;;;2.65;;
60292;SDS011;52402;52.670;6.750;2022-09-09T11:55:39;7.38;;;2.05;;
60292;SDS011;52402;52.670;6.750;2022-09-09T12:00:46;10.38;;;2.45;;
60292;SDS011;52402;52.670;6.750;2022-09-09T12:08:55;7.53;;;2.13;;
60292;SDS011;52402;52.670;6.750;2022-09-09T12:11:31;7.20;;;2.15;;
60292;SDS011;52402;52.670;6.750;2022-09-09T12:13:58;6.50;;;2.38;;
60292;SDS011;52402;52.670;6.750;2022-09-09T12:16:30;6.93;;;2.10;;
60292;SDS011;52402;52.670;6.750;2022-09-09T12:22:07;7.00;;;2.45;;
60292;SDS011;52402;52.670;6.750;2022-09-09T12:24:43;7.82;;;2.30;;
60292;SDS011;52402;52.670;6.750;2022-09-09T12:27:26;6.53;;;2.30;;
60292;SDS011;52402;52.670;6.750;2022-09-09T12:30:04;8.57;;;2.47;;
60292;SDS011;52402;52.670;6.750;2022-09-09T12:32:36;5.75;;;2.17;;
60292;SDS011;52402;52.670;6.750;2022-09-09T12:35:03;7.40;;;2.53;;
60292;SDS011;52402;52.670;6.750;2022-09-09T12:40:20;8.38;;;2.40;;
60292;SDS011;52402;52.670;6.750;2022-09-09T12:42:48;7.80;;;2.58;;
60292;SDS011;52402;52.670;6.750;2022-09-09T12:45:16;7.18;;;2.10;;
60292;SDS011;52402;52.670;6.750;2022-09-09T12:47:47;9.65;;;2.20;;
60292;SDS011;52402;52.670;6.750;2022-09-09T12:50:24;8.45;;;2.25;;
60292;SDS011;52402;52.670;6.750;2022-09-09T12:52:56;7.45;;;2.40;;
60292;SDS011;52402;52.670;6.750;2022-09-09T12:55:34;10.15;;;3.00;;
60292;SDS011;52402;52.670;6.750;2022-09-09T12:58:03;7.97;;;2.33;;
60292;SDS011;52402;52.670;6.750;2022-09-09T13:00:31;6.60;;;2.28;;
60292;SDS011;52402;52.670;6.750;2022-09-09T13:03:02;7.47;;;2.00;;
60292;SDS011;52402;52.670;6.750;2022-09-09T13:05:41;4.90;;;1.67;;
60292;SDS011;52402;52.670;6.750;2022-09-09T13:08:10;5.80;;;2.00;;
60292;SDS011;52402;52.670;6.750;2022-09-09T13:10:38;8.35;;;2.00;;
60292;SDS011;52402;52.670;6.750;2022-09-09T13:13:15;6.78;;;1.90;;
60292;SDS011;52402;52.670;6.750;2022-09-09T13:15:48;6.88;;;2.05;;
60292;SDS011;52402;52.670;6.750;2022-09-09T13:18:16;5.60;;;1.67;;
60292;SDS011;52402;52.670;6.750;2022-09-09T13:20:46;8.00;;;2.05;;
60292;SDS011;52402;52.670;6.750;2022-09-09T13:23:13;6.15;;;1.75;;
60292;SDS011;52402;52.670;6.750;2022-09-09T13:25:40;5.25;;;1.65;;
60292;SDS011;52402;52.670;6.750;2022-09-09T13:28:19;5.63;;;1.52;;
60292;SDS011;52402;52.670;6.750;2022-09-09T13:30:55;6.10;;;1.50;;
60292;SDS011;52402;52.670;6.750;2022-09-09T13:33:24;6.97;;;1.90;;
60292;SDS011;52402;52.670;6.750;2022-09-09T13:38:33;7.80;;;2.00;;
60292;SDS011;52402;52.670;6.750;2022-09-09T13:41:21;5.97;;;1.77;;
60292;SDS011;52402;52.670;6.750;2022-09-09T13:43:49;5.70;;;1.73;;
60292;SDS011;52402;52.670;6.750;2022-09-09T13:46:32;5.97;;;1.67;;
60292;SDS011;52402;52.670;6.750;2022-09-09T13:49:16;6.43;;;1.73;;
60292;SDS011;52402;52.670;6.750;2022-09-09T13:51:49;6.78;;;1.88;;
60292;SDS011;52402;52.670;6.750;2022-09-09T13:54:20;5.75;;;1.55;;
60292;SDS011;52402;52.670;6.750;2022-09-09T13:56:46;4.70;;;1.53;;
60292;SDS011;52402;52.670;6.750;2022-09-09T13:59:13;6.80;;;1.70;;
60292;SDS011;52402;52.670;6.750;2022-09-09T14:01:41;6.50;;;2.10;;
60292;SDS011;52402;52.670;6.750;2022-09-09T14:04:07;6.88;;;2.13;;
60292;SDS011;52402;52.670;6.750;2022-09-09T14:06:37;8.98;;;2.50;;
60292;SDS011;52402;52.670;6.750;2022-09-09T14:09:09;7.00;;;2.75;;
60292;SDS011;52402;52.670;6.750;2022-09-09T14:11:37;8.63;;;2.90;;
60292;SDS011;52402;52.670;6.750;2022-09-09T14:14:10;6.70;;;2.35;;
60292;SDS011;52402;52.670;6.750;2022-09-09T14:16:35;8.32;;;2.20;;
60292;SDS011;52402;52.670;6.750;2022-09-09T14:19:02;6.13;;;2.90;;
60292;SDS011;52402;52.670;6.750;2022-09-09T14:21:28;5.13;;;2.47;;
60292;SDS011;52402;52.670;6.750;2022-09-09T14:23:54;6.18;;;1.95;;
60292;SDS011;52402;52.670;6.750;2022-09-09T14:26:24;4.93;;;1.85;;
60292;SDS011;52402;52.670;6.750;2022-09-09T14:28:50;5.43;;;1.90;;
60292;SDS011;52402;52.670;6.750;2022-09-09T14:31:16;4.30;;;1.73;;
60292;SDS011;52402;52.670;6.750;2022-09-09T14:33:43;4.20;;;1.80;;
60292;SDS011;52402;52.670;6.750;2022-09-09T14:36:09;4.93;;;1.90;;
60292;SDS011;52402;52.670;6.750;2022-09-09T14:38:37;5.18;;;2.20;;
60292;SDS011;52402;52.670;6.750;2022-09-09T14:41:11;4.68;;;2.20;;
60292;SDS011;52402;52.670;6.750;2022-09-09T14:43:45;5.28;;;1.90;;
60292;SDS011;52402;52.670;6.750;2022-09-09T14:46:12;5.95;;;2.25;;
60292;SDS011;52402;52.670;6.750;2022-09-09T14:48:40;6.13;;;2.00;;
60292;SDS011;52402;52.670;6.750;2022-09-09T14:51:07;5.00;;;1.98;;
60292;SDS011;52402;52.670;6.750;2022-09-09T14:53:34;5.88;;;2.40;;
60292;SDS011;52402;52.670;6.750;2022-09-09T14:56:04;6.05;;;2.17;;
60292;SDS011;52402;52.670;6.750;2022-09-09T14:58:35;6.47;;;2.33;;
60292;SDS011;52402;52.670;6.750;2022-09-09T15:01:07;6.32;;;2.60;;
60292;SDS011;52402;52.670;6.750;2022-09-09T15:03:38;3.75;;;2.00;;
60292;SDS011;52402;52.670;6.750;2022-09-09T15:06:07;5.82;;;2.88;;
60292;SDS011;52402;52.670;6.750;2022-09-09T15:08:38;4.53;;;2.45;;
60292;SDS011;52402;52.670;6.750;2022-09-09T15:11:10;4.28;;;2.53;;
60292;SDS011;52402;52.670;6.750;2022-09-09T15:13:37;5.47;;;3.20;;
60292;SDS011;52402;52.670;6.750;2022-09-09T15:16:14;5.30;;;2.60;;
60292;SDS011;52402;52.670;6.750;2022-09-09T15:18:41;5.82;;;2.60;;
60292;SDS011;52402;52.670;6.750;2022-09-09T15:21:10;5.93;;;2.92;;
60292;SDS011;52402;52.670;6.750;2022-09-09T15:23:40;5.20;;;2.42;;
60292;SDS011;52402;52.670;6.750;2022-09-09T15:26:07;6.47;;;2.92;;
60292;SDS011;52402;52.670;6.750;2022-09-09T15:28:33;5.38;;;2.65;;
60292;SDS011;52402;52.670;6.750;2022-09-09T15:31:05;4.45;;;2.47;;
60292;SDS011;52402;52.670;6.750;2022-09-09T15:33:32;7.13;;;2.90;;
60292;SDS011;52402;52.670;6.750;2022-09-09T15:35:59;5.55;;;2.40;;
60292;SDS011;52402;52.670;6.750;2022-09-09T15:38:24;5.03;;;2.40;;
60292;SDS011;52402;52.670;6.750;2022-09-09T15:40:53;7.22;;;2.97;;
60292;SDS011;52402;52.670;6.750;2022-09-09T15:43:20;6.30;;;2.90;;
60292;SDS011;52402;52.670;6.750;2022-09-09T15:45:49;7.50;;;2.60;;
60292;SDS011;52402;52.670;6.750;2022-09-09T15:48:23;7.38;;;2.78;;
60292;SDS011;52402;52.670;6.750;2022-09-09T15:51:02;5.95;;;2.88;;
60292;SDS011;52402;52.670;6.750;2022-09-09T15:53:29;5.65;;;3.10;;
60292;SDS011;52402;52.670;6.750;2022-09-09T15:55:57;6.47;;;2.72;;
60292;SDS011;52402;52.670;6.750;2022-09-09T15:58:23;7.05;;;2.95;;
60292;SDS011;52402;52.670;6.750;2022-09-09T16:00:48;5.85;;;3.00;;
60292;SDS011;52402;52.670;6.750;2022-09-09T16:03:14;6.45;;;2.95;;
60292;SDS011;52402;52.670;6.750;2022-09-09T16:05:40;6.35;;;3.20;;
60292;SDS011;52402;52.670;6.750;2022-09-09T16:08:06;8.90;;;3.20;;
60292;SDS011;52402;52.670;6.750;2022-09-09T16:10:32;8.70;;;3.67;;
60292;SDS011;52402;52.670;6.750;2022-09-09T16:12:57;7.55;;;3.10;;
60292;SDS011;52402;52.670;6.750;2022-09-09T16:15:24;6.35;;;3.25;;
60292;SDS011;52402;52.670;6.750;2022-09-09T16:17:52;7.10;;;3.22;;
60292;SDS011;52402;52.670;6.750;2022-09-09T16:20:18;6.00;;;3.13;;
60292;SDS011;52402;52.670;6.750;2022-09-09T16:22:45;7.40;;;3.40;;
60292;SDS011;52402;52.670;6.750;2022-09-09T16:25:11;6.47;;;3.40;;
60292;SDS011;52402;52.670;6.750;2022-09-09T16:27:37;7.70;;;3.35;;
60292;SDS011;52402;52.670;6.750;2022-09-09T16:30:02;6.63;;;3.13;;
60292;SDS011;52402;52.670;6.750;2022-09-09T16:32:29;6.28;;;2.92;;
60292;SDS011;52402;52.670;6.750;2022-09-09T16:34:54;7.45;;;5.10;;
60292;SDS011;52402;52.670;6.750;2022-09-09T16:37:20;7.50;;;3.17;;
60292;SDS011;52402;52.670;6.750;2022-09-09T16:39:45;4.22;;;2.30;;
60292;SDS011;52402;52.670;6.750;2022-09-09T16:42:11;7.10;;;2.38;;
60292;SDS011;52402;52.670;6.750;2022-09-09T16:44:37;5.90;;;2.50;;
60292;SDS011;52402;52.670;6.750;2022-09-09T16:47:02;4.97;;;2.60;;
60292;SDS011;52402;52.670;6.750;2022-09-09T16:49:28;5.05;;;2.47;;
60292;SDS011;52402;52.670;6.750;2022-09-09T16:51:56;6.53;;;2.22;;
60292;SDS011;52402;52.670;6.750;2022-09-09T16:54:23;7.45;;;2.50;;
60292;SDS011;52402;52.670;6.750;2022-09-09T16:56:50;5.82;;;2.80;;
60292;SDS011;52402;52.670;6.750;2022-09-09T16:59:16;6.85;;;3.05;;
60292;SDS011;52402;52.670;6.750;2022-09-09T17:04:13;6.78;;;2.65;;
60292;SDS011;52402;52.670;6.750;2022-09-09T17:06:45;6.25;;;2.75;;